• Join FlightAware (Why Join?)
  • Login
  • US Flag 
03:50AM EDT


 

Airport Tracker/Info


-or-


 

Live Flight TrackerFlight Track Log ✈ SWA2093 ✈ 01-Mar-2014 ✈ KBNA - KCMH

Flight Track Log - Related Links

Times and Time Zones

All times are in EST time to prevent confusion due to time zone crossing. See the SWA2093 flight status page for this flight to view local times or setup timezone preferences in your user account.

Time Position Orientation Groundspeed Altitude Reporting Facility
EST Latitude Longitude Course Direction KTS MPH feet Rate Location/Type
06:48PM 36.1000 -86.6833 253° West 144 166 1,600  Level Nashville TRACON
06:49PM 36.0833 -86.7500 253° West 209 241 4,400 3,000 Climbing Nashville TRACON
06:50PM 36.0839 -86.8092 271° West 221 254 7,400 3,420 Climbing Memphis Center
06:51PM 36.1269 -86.8931 302° West 282 325 11,400 3,540 Climbing Memphis Center
06:52PM 36.2103 -86.8361 29° Northeast 347 399 14,700 2,760 Climbing Memphis Center
06:53PM 36.2939 -86.7547 38° Northeast 382 440 17,100 2,640 Climbing Memphis Center
06:54PM 36.3825 -86.6678 38° Northeast 405 466 20,100 2,700 Climbing Memphis Center
06:55PM 36.4767 -86.5767 38° Northeast 422 486 22,700 2,460 Climbing Memphis Center
06:56PM 36.5767 -86.4808 38° Northeast 443 510 25,200 2,280 Climbing Memphis Center
06:57PM 36.6919 -86.4169 24° Northeast 451 519 27,400 2,280 Climbing Memphis Center
06:58PM 36.8097 -86.3583 22° Northeast 451 519 29,900 2,580 Climbing Memphis Center
06:59PM 36.9425 -86.2922 22° Northeast 443 510 33,000 1,440 Climbing Indianapolis Center
07:00PM 37.0539 -86.2364 22° Northeast 432 497 33,000  Level Indianapolis Center
07:01PM 37.1653 -86.1814 21° North 431 496 33,000  Level Indianapolis Center
07:02PM 37.2753 -86.1228 23° Northeast 429 494 33,000  Level Indianapolis Center
07:03PM 37.3833 -86.0494 28° Northeast 430 495 33,000  Level Indianapolis Center
07:04PM 37.4906 -85.9772 28° Northeast 432 497 33,000  Level Indianapolis Center
07:05PM 37.5981 -85.8856 34° Northeast 440 506 33,000  Level Indianapolis Center
07:06PM 37.7019 -85.8019 32° Northeast 442 509 33,000  Level Indianapolis Center
07:07PM 37.8050 -85.7172 33° Northeast 442 509 33,000  Level Indianapolis Center
07:08PM 37.9075 -85.6331 33° Northeast 442 509 33,000  Level Indianapolis Center
07:09PM 38.0108 -85.5469 33° Northeast 442 509 33,000 -120 Level Indianapolis Center
07:10PM 38.1344 -85.4447 33° Northeast 442 509 32,800 -600 Descending Indianapolis Center
07:11PM 38.2389 -85.3592 33° Northeast 442 509 31,800 -900 Descending Indianapolis Center
07:12PM 38.3436 -85.2708 33° Northeast 444 511 31,000 -420 Descending Indianapolis Center
07:13PM 38.4381 -85.1911 33° Northeast 445 512 31,000  Level Indianapolis Center
07:14PM 38.5611 -85.0881 33° Northeast 447 514 31,000  Level Indianapolis Center
07:15PM 38.6525 -85.0122 33° Northeast 447 514 31,000 -540 Level Indianapolis Center
07:16PM 38.7572 -84.9236 33° Northeast 448 516 30,000 -1,620 Descending Indianapolis Center
07:17PM 38.8600 -84.8358 34° Northeast 449 517 27,700 -2,400 Descending Indianapolis Center
07:18PM 38.9658 -84.7450 34° Northeast 442 509 25,100 -2,100 Descending Indianapolis Center
07:19PM 39.0508 -84.6394 44° Northeast 436 502 23,500 -1,080 Descending Indianapolis Center
07:20PM 39.1217 -84.5119 54° Northeast 439 505 23,000 -300 Descending Indianapolis Center
07:21PM 39.2067 -84.3572 55° Northeast 439 505 23,000  Level Indianapolis Center
07:22PM 39.2772 -84.2283 55° Northeast 440 506 23,000 -240 Level Indianapolis Center
07:23PM 39.3144 -84.1464 60° Northeast 447 514 22,700 -1,200 Descending Indianapolis Center
07:23PM 39.3378 -84.0878 63° Northeast 446 513 21,800 -2,220 Descending Indianapolis Center
07:24PM 39.3811 -83.9736 64° Northeast 437 503 20,100 -2,100 Descending Indianapolis Center
07:24PM 39.3894 -83.9475 68° East 441 507 19,700 -2,220 Descending Indianapolis Center
07:25PM 39.4358 -83.8314 63° Northeast 422 486 17,900 -1,920 Descending Indianapolis Center
07:25PM 39.4414 -83.8133 68° East 428 493 17,800 -2,220 Descending Indianapolis Center
07:26PM 39.4881 -83.6908 64° Northeast 420 483 15,700 -2,400 Descending Indianapolis Center
07:26PM 39.4917 -83.6792 68° East 422 486 15,400 -2,400 Descending Indianapolis Center
07:27PM 39.5356 -83.5550 65° Northeast 415 478 13,300 -2,280 Descending Indianapolis Center
07:27PM 39.5392 -83.5444 66° East 421 484 13,100 -2,340 Descending Indianapolis Center
07:28PM 39.5917 -83.4150 62° Northeast 393 452 10,700 -2,280 Descending Indianapolis Center
07:28PM 39.5889 -83.4192 229° Southwest 403 464 10,800 -600 Climbing Indianapolis Center
07:29PM 39.6469 -83.2828 61° Northeast 371 427 10,000 -1,020 Descending Indianapolis Center
07:30PM 39.6847 -83.1967 60° Northeast 311 358 9,000 -1,200 Descending Indianapolis Center
07:30PM 39.6889 -83.1847 66° East 325 374 8,800 -1,500 Descending Indianapolis Center
07:31PM 39.7272 -83.1028 59° Northeast 314 361 7,500 -1,500 Descending Indianapolis Center
07:32PM 39.7322 -83.0872 67° East 317 365 7,300 -1,380 Descending Indianapolis Center
07:32PM 39.7703 -83.0064 58° Northeast 312 359 6,100 -1,320 Descending Indianapolis Center
07:33PM 39.7758 -82.9928 62° Northeast 313 360 6,000 -720 Descending Indianapolis Center
07:33PM 39.8083 -82.9144 62° Northeast 283 326 5,400 -840 Descending Indianapolis Center
07:34PM 39.8150 -82.9006 58° Northeast 300 345 5,200 -1,380 Descending Indianapolis Center
07:34PM 39.8547 -82.8236 56° Northeast 273 314 4,000 -1,320 Descending Indianapolis Center
07:35PM 39.8564 -82.8169 72° East 284 327 3,900 -420 Descending Indianapolis Center
07:35PM 39.9192 -82.7875 20° North 242 278 3,600 -300 Descending Indianapolis Center
07:36PM 39.9219 -82.7819 57° Northeast 263 303 3,600 -780 Level Indianapolis Center
07:36PM 39.9764 -82.7583 18° North 190 219 2,800 -840 Descending Indianapolis Center
07:37PM 39.9769 -82.7547 79° East 235 270 2,800 -720 Level Indianapolis Center
07:38PM 39.9875 -82.8022 286° West 179 206 2,000 -840 Descending Indianapolis Center
07:39PM 39.9903 -82.8561 274° West 116 133 1,200 -840 Descending Indianapolis Center
07:41PM 39.9833 -82.8833 270° West  Level FlightAware Approximate